createdAt,value
2019-03-06T00:02:16.524Z,6.30
2019-03-06T00:04:46.128Z,5.27
2019-03-06T00:07:15.821Z,10.70
2019-03-06T00:09:45.540Z,7.17
2019-03-06T00:12:15.669Z,8.50
2019-03-06T00:14:45.945Z,8.70
2019-03-06T00:17:15.724Z,7.77
2019-03-06T00:19:45.403Z,5.60
2019-03-06T00:22:15.200Z,5.20
2019-03-06T00:24:45.225Z,10.13
2019-03-06T00:27:15.065Z,9.27
2019-03-06T00:29:44.996Z,8.50
2019-03-06T00:32:15.078Z,12.30
2019-03-06T00:34:44.892Z,6.57
2019-03-06T00:37:14.920Z,9.37
2019-03-06T00:39:52.502Z,6.20
2019-03-06T00:42:22.219Z,12.53
2019-03-06T00:44:51.919Z,8.83
2019-03-06T00:47:22.445Z,8.43
2019-03-06T00:49:52.540Z,8.97
2019-03-06T00:52:22.217Z,6.57
2019-03-06T00:54:51.868Z,11.70
2019-03-06T00:57:22.582Z,10.80
2019-03-06T00:59:52.997Z,8.90
2019-03-06T01:02:23.099Z,10.60
2019-03-06T01:04:53.137Z,15.33
2019-03-06T01:07:23.166Z,11.93
2019-03-06T01:09:52.839Z,11.73
2019-03-06T01:12:22.911Z,9.27
2019-03-06T01:14:52.898Z,8.53
2019-03-06T01:17:22.944Z,7.83
2019-03-06T01:19:52.733Z,14.33
2019-03-06T01:22:22.741Z,10.00
2019-03-06T01:24:52.872Z,14.60
2019-03-06T01:27:23.055Z,9.23
2019-03-06T01:29:52.699Z,11.40
2019-03-06T01:32:22.522Z,10.53
2019-03-06T01:35:10.240Z,13.30
2019-03-06T01:37:57.296Z,9.73
2019-03-06T01:40:55.035Z,14.00
2019-03-06T01:43:29.686Z,12.60
2019-03-06T01:46:00.013Z,9.70
2019-03-06T01:48:29.690Z,9.13
2019-03-06T01:50:59.339Z,14.43
2019-03-06T01:53:29.309Z,15.40
2019-03-06T01:55:59.310Z,14.07
2019-03-06T01:58:29.408Z,14.40
2019-03-06T02:00:59.237Z,14.10
2019-03-06T02:03:29.588Z,16.43
2019-03-06T02:05:59.526Z,15.60
2019-03-06T02:08:29.271Z,15.07
2019-03-06T02:10:59.176Z,15.77
2019-03-06T02:13:29.241Z,14.27
2019-03-06T02:15:58.933Z,17.70
2019-03-06T02:18:29.476Z,11.00
2019-03-06T02:20:59.553Z,16.13
2019-03-06T02:23:29.487Z,13.40
2019-03-06T02:25:59.548Z,11.67
2019-03-06T02:28:29.326Z,11.53
2019-03-06T02:30:59.424Z,14.47
2019-03-06T02:33:29.462Z,22.90
2019-03-06T02:35:59.106Z,16.80
2019-03-06T02:38:29.151Z,13.43
2019-03-06T02:40:59.113Z,13.23
2019-03-06T02:43:29.197Z,15.67
2019-03-06T02:45:59.210Z,16.70
2019-03-06T02:48:29.307Z,13.60
2019-03-06T02:50:58.952Z,16.03
2019-03-06T02:53:28.672Z,16.97
2019-03-06T02:55:58.628Z,20.00
2019-03-06T02:58:55.664Z,20.30
2019-03-06T03:01:44.272Z,19.00
2019-03-06T03:04:25.250Z,20.43
2019-03-06T03:07:04.052Z,17.27
2019-03-06T03:09:34.498Z,15.40
2019-03-06T03:12:04.257Z,15.20
2019-03-06T03:14:34.609Z,21.60
2019-03-06T03:17:04.686Z,15.53
2019-03-06T03:19:34.660Z,16.30
2019-03-06T03:22:04.714Z,18.17
2019-03-06T03:24:34.354Z,16.17
2019-03-06T03:27:04.687Z,16.83
2019-03-06T03:29:34.666Z,18.53
2019-03-06T03:32:04.338Z,19.20
2019-03-06T03:34:34.389Z,16.77
2019-03-06T03:37:04.220Z,21.03
2019-03-06T03:39:33.779Z,17.53
2019-03-06T03:42:03.469Z,20.43
2019-03-06T03:44:33.332Z,21.00
2019-03-06T03:47:03.623Z,18.63
2019-03-06T03:49:33.653Z,20.47
2019-03-06T03:52:03.323Z,21.00
2019-03-06T03:54:33.009Z,24.70
2019-03-06T03:57:03.347Z,20.00
2019-03-06T03:59:33.763Z,19.23
2019-03-06T04:02:03.791Z,24.40
2019-03-06T04:04:34.231Z,19.90
2019-03-06T04:07:04.327Z,25.03
2019-03-06T04:09:34.033Z,21.73
2019-03-06T04:12:03.698Z,22.07
2019-03-06T04:14:33.355Z,23.90
2019-03-06T04:17:03.385Z,23.40
2019-03-06T04:19:33.052Z,19.00
2019-03-06T04:22:03.245Z,26.80
2019-03-06T04:24:32.905Z,19.90
2019-03-06T04:27:02.588Z,20.13
2019-03-06T04:29:32.177Z,22.30
2019-03-06T04:32:02.181Z,20.93
2019-03-06T04:34:32.240Z,19.53
2019-03-06T04:37:01.973Z,24.93
2019-03-06T04:39:31.657Z,19.67
2019-03-06T04:42:03.099Z,22.67
2019-03-06T04:44:34.568Z,24.20
2019-03-06T04:47:04.518Z,17.67
2019-03-06T04:49:34.151Z,22.13
2019-03-06T04:52:03.715Z,20.97
2019-03-06T04:54:33.351Z,21.70
2019-03-06T04:57:03.440Z,18.60
2019-03-06T04:59:33.622Z,21.53
2019-03-06T05:02:03.647Z,23.40
2019-03-06T05:04:33.349Z,16.80
2019-03-06T05:07:03.375Z,24.13
2019-03-06T05:09:33.280Z,19.73
2019-03-06T05:12:03.111Z,19.30
2019-03-06T05:14:33.127Z,18.50
2019-03-06T05:17:27.916Z,17.10
2019-03-06T05:19:57.566Z,17.33
2019-03-06T05:22:27.787Z,16.23
2019-03-06T05:24:57.429Z,15.97
2019-03-06T05:27:27.275Z,18.07
2019-03-06T05:29:57.419Z,17.97
2019-03-06T05:32:34.708Z,13.97
2019-03-06T05:35:10.715Z,14.13
2019-03-06T05:38:12.714Z,26.03
2019-03-06T05:40:43.386Z,20.83
2019-03-06T05:43:13.169Z,21.03
2019-03-06T05:45:43.390Z,13.73
2019-03-06T05:48:12.915Z,15.20
2019-03-06T05:50:42.766Z,16.13
2019-03-06T05:53:12.787Z,16.23
2019-03-06T05:55:42.891Z,16.80
2019-03-06T05:58:12.824Z,17.00
2019-03-06T06:00:42.455Z,16.00
2019-03-06T06:03:12.515Z,21.60
2019-03-06T06:05:42.580Z,21.43
2019-03-06T06:08:12.264Z,22.47
2019-03-06T06:10:41.917Z,16.67
2019-03-06T06:13:11.958Z,19.97
2019-03-06T06:15:43.107Z,24.33
2019-03-06T06:18:13.052Z,19.40
2019-03-06T06:20:45.594Z,20.30
2019-03-06T06:23:34.123Z,20.27
2019-03-06T06:26:04.127Z,17.50
2019-03-06T06:28:34.398Z,16.70
2019-03-06T06:31:04.504Z,14.47
2019-03-06T06:33:34.199Z,21.40
2019-03-06T06:36:04.356Z,14.97
2019-03-06T06:38:34.493Z,17.67
2019-03-06T06:41:04.414Z,20.50
2019-03-06T06:43:34.519Z,20.73
2019-03-06T06:46:04.190Z,17.07
2019-03-06T06:48:33.867Z,16.23
2019-03-06T06:51:47.894Z,19.97
2019-03-06T06:54:26.703Z,20.23
2019-03-06T06:57:46.088Z,20.10
2019-03-06T07:01:06.030Z,17.17
2019-03-06T07:04:23.568Z,20.10
2019-03-06T07:07:11.231Z,20.10
2019-03-06T07:10:02.852Z,17.00
2019-03-06T07:13:17.411Z,15.73
2019-03-06T07:16:18.675Z,15.63
2019-03-06T07:19:19.498Z,20.27
2019-03-06T07:22:17.629Z,15.93
2019-03-06T07:25:12.472Z,14.37
2019-03-06T07:27:48.996Z,26.80
2019-03-06T07:30:28.592Z,16.57
2019-03-06T07:33:36.173Z,14.13
2019-03-06T07:36:31.607Z,15.17
2019-03-06T07:39:18.076Z,18.47
2019-03-06T07:42:05.533Z,11.67
2019-03-06T07:44:53.187Z,12.53
2019-03-06T07:47:42.154Z,13.40
2019-03-06T07:50:28.187Z,15.70
2019-03-06T07:54:03.028Z,13.77
2019-03-06T07:56:36.532Z,15.23
2019-03-06T07:59:06.405Z,16.83
2019-03-06T08:01:45.217Z,17.23
2019-03-06T08:04:16.742Z,14.97
2019-03-06T08:07:01.189Z,13.57
2019-03-06T08:09:31.395Z,11.33
2019-03-06T08:12:26.033Z,16.80
2019-03-06T08:15:17.830Z,12.10
2019-03-06T08:18:15.619Z,11.20
2019-03-06T08:21:03.089Z,10.23
2019-03-06T08:23:55.154Z,10.80
2019-03-06T08:26:25.452Z,10.70
2019-03-06T08:28:55.462Z,12.50
2019-03-06T08:31:34.846Z,10.73
2019-03-06T08:34:04.697Z,10.07
2019-03-06T08:36:34.563Z,10.40
2019-03-06T08:39:13.687Z,8.30
2019-03-06T08:41:43.592Z,11.90
2019-03-06T08:44:13.490Z,10.67
2019-03-06T08:46:59.156Z,13.40
2019-03-06T08:49:51.081Z,9.47
2019-03-06T08:52:45.844Z,12.30
2019-03-06T08:55:33.069Z,11.60
2019-03-06T08:58:24.990Z,10.77
2019-03-06T09:01:18.481Z,11.87
2019-03-06T09:04:06.309Z,10.10
2019-03-06T09:06:53.654Z,10.80
2019-03-06T09:09:33.602Z,10.43
2019-03-06T09:12:22.260Z,6.33
2019-03-06T09:15:09.055Z,8.20
2019-03-06T09:18:08.910Z,9.13
2019-03-06T09:20:57.520Z,13.57
2019-03-06T09:24:04.115Z,7.60
2019-03-06T09:27:04.783Z,8.97
2019-03-06T09:29:56.552Z,6.37
2019-03-06T09:32:44.080Z,7.37
2019-03-06T09:35:33.110Z,5.07
2019-03-06T09:38:20.207Z,7.57
2019-03-06T09:41:12.864Z,5.50
2019-03-06T09:43:53.464Z,8.60
2019-03-06T09:46:35.316Z,8.40
2019-03-06T09:49:39.633Z,6.80
2019-03-06T09:52:31.709Z,7.40
2019-03-06T09:55:08.442Z,4.77
2019-03-06T09:58:00.190Z,4.93
2019-03-06T10:00:54.860Z,9.13
2019-03-06T10:03:36.373Z,6.90
2019-03-06T10:06:15.910Z,9.90
2019-03-06T10:09:03.347Z,5.80
2019-03-06T10:11:58.451Z,6.30
2019-03-06T10:14:35.283Z,7.80
2019-03-06T10:17:18.759Z,6.87
2019-03-06T10:20:02.250Z,6.60
2019-03-06T10:22:32.056Z,4.70
2019-03-06T10:25:02.246Z,5.03
2019-03-06T10:27:32.015Z,6.00
2019-03-06T10:30:02.189Z,3.93
2019-03-06T10:32:32.479Z,7.70
2019-03-06T10:35:02.648Z,3.73
2019-03-06T10:37:32.528Z,3.93
2019-03-06T10:40:02.407Z,3.47
2019-03-06T10:42:32.192Z,3.60
2019-03-06T10:45:01.988Z,5.90
2019-03-06T10:47:32.042Z,6.37
2019-03-06T10:50:01.727Z,5.77
2019-03-06T10:52:31.695Z,8.57
2019-03-06T10:55:01.561Z,3.40
2019-03-06T10:57:31.279Z,4.83
2019-03-06T11:00:01.543Z,7.43
2019-03-06T11:02:31.698Z,5.67
2019-03-06T11:05:07.617Z,11.13
2019-03-06T11:07:37.238Z,8.13
2019-03-06T11:10:08.089Z,11.60
2019-03-06T11:12:38.327Z,4.60
2019-03-06T11:15:09.377Z,5.17
2019-03-06T11:17:39.148Z,4.33
2019-03-06T11:20:12.111Z,7.13
2019-03-06T11:22:41.763Z,6.20
2019-03-06T11:25:11.982Z,4.23
2019-03-06T11:27:41.819Z,2.90
2019-03-06T11:30:17.009Z,4.57
2019-03-06T11:32:54.263Z,9.70
2019-03-06T11:35:19.937Z,7.23
2019-03-06T11:37:50.060Z,5.70
2019-03-06T11:40:20.266Z,4.70
2019-03-06T11:42:50.377Z,5.97
2019-03-06T11:45:20.629Z,5.90
2019-03-06T11:47:50.442Z,9.97
2019-03-06T11:50:20.895Z,6.87
2019-03-06T11:52:51.169Z,9.00
2019-03-06T11:55:22.181Z,5.53
2019-03-06T11:57:51.861Z,6.37
2019-03-06T12:00:28.230Z,5.03
2019-03-06T12:02:58.427Z,5.80
2019-03-06T12:05:28.648Z,7.20
2019-03-06T12:07:58.433Z,4.13
2019-03-06T12:10:29.261Z,8.40
2019-03-06T12:13:00.020Z,3.87
2019-03-06T12:15:30.122Z,6.50
2019-03-06T12:18:00.466Z,4.60
2019-03-06T12:20:30.429Z,8.20
2019-03-06T12:23:01.040Z,3.63
2019-03-06T12:25:31.244Z,3.73
2019-03-06T12:28:00.896Z,11.80
2019-03-06T12:30:30.834Z,9.47
2019-03-06T12:33:21.822Z,6.93
2019-03-06T12:35:52.473Z,6.70
2019-03-06T12:38:23.342Z,8.40
2019-03-06T12:40:53.356Z,8.00
2019-03-06T12:43:23.339Z,4.00
2019-03-06T12:46:31.148Z,5.50
2019-03-06T12:49:06.060Z,9.27
2019-03-06T12:51:37.090Z,2.63
2019-03-06T12:54:08.317Z,6.30
2019-03-06T12:56:38.270Z,8.13
2019-03-06T12:59:08.383Z,6.80
2019-03-06T13:01:39.253Z,5.33
2019-03-06T13:04:09.318Z,4.00
2019-03-06T13:06:39.165Z,7.00
2019-03-06T13:09:21.617Z,4.67
2019-03-06T13:11:51.887Z,11.50
2019-03-06T13:14:21.953Z,4.07
2019-03-06T13:16:52.393Z,6.80
2019-03-06T13:19:22.399Z,5.90
2019-03-06T13:21:52.229Z,16.70
2019-03-06T13:24:22.145Z,5.73
2019-03-06T13:26:52.153Z,9.27
2019-03-06T13:29:22.376Z,6.60
2019-03-06T13:31:52.727Z,8.83
2019-03-06T13:34:51.375Z,6.17
2019-03-06T13:37:22.118Z,8.43
2019-03-06T13:39:52.025Z,5.27
2019-03-06T13:42:22.558Z,9.87
2019-03-06T13:44:52.750Z,7.13
2019-03-06T13:47:22.899Z,6.07
2019-03-06T13:49:52.730Z,6.87
2019-03-06T13:52:23.170Z,5.80
2019-03-06T13:54:53.447Z,2.53
2019-03-06T13:57:23.385Z,9.20
2019-03-06T13:59:53.400Z,6.77
2019-03-06T14:02:23.584Z,6.70
2019-03-06T14:04:53.708Z,5.10
2019-03-06T14:07:23.924Z,7.30
2019-03-06T14:09:54.271Z,5.53
2019-03-06T14:12:24.212Z,11.20
2019-03-06T14:14:53.898Z,10.63
2019-03-06T14:17:23.909Z,7.63
2019-03-06T14:19:53.741Z,5.53
2019-03-06T14:22:23.930Z,4.93
2019-03-06T14:24:55.498Z,6.53
2019-03-06T14:27:25.291Z,6.87
2019-03-06T14:29:55.322Z,8.47
2019-03-06T14:32:25.115Z,9.10
2019-03-06T14:34:55.362Z,6.33
2019-03-06T14:37:25.160Z,5.97
2019-03-06T14:39:54.962Z,8.10
2019-03-06T14:42:25.163Z,5.33
2019-03-06T14:44:55.219Z,6.67
2019-03-06T14:47:25.488Z,9.60
2019-03-06T14:49:55.764Z,8.17
2019-03-06T14:52:25.766Z,10.07
2019-03-06T14:54:56.487Z,4.27
2019-03-06T14:57:26.269Z,8.90
2019-03-06T14:59:56.442Z,12.03
2019-03-06T15:02:26.225Z,4.23
2019-03-06T15:04:55.941Z,11.27
2019-03-06T15:07:25.860Z,7.93
2019-03-06T15:09:55.877Z,5.87
2019-03-06T15:12:25.761Z,4.70
2019-03-06T15:14:55.603Z,8.17
2019-03-06T15:17:25.606Z,8.17
2019-03-06T15:19:55.394Z,9.73
2019-03-06T15:22:25.222Z,5.73
2019-03-06T15:24:55.036Z,6.23
2019-03-06T15:27:24.865Z,7.33
2019-03-06T15:29:54.772Z,11.10
2019-03-06T15:32:24.765Z,6.77
2019-03-06T15:34:54.905Z,15.30
2019-03-06T15:37:24.985Z,8.20
2019-03-06T15:39:55.224Z,9.10
2019-03-06T15:42:25.570Z,6.23
2019-03-06T15:44:55.501Z,5.47
2019-03-06T15:47:33.366Z,6.33
2019-03-06T15:49:57.281Z,7.03
2019-03-06T15:52:27.190Z,8.60
2019-03-06T15:54:57.317Z,11.37
2019-03-06T15:57:27.769Z,6.97
2019-03-06T15:59:57.966Z,5.20
2019-03-06T16:02:29.220Z,8.27
2019-03-06T16:04:59.084Z,11.40
2019-03-06T16:07:28.859Z,6.20
2019-03-06T16:09:58.706Z,5.63
2019-03-06T16:12:28.945Z,5.67
2019-03-06T16:14:58.962Z,7.33
2019-03-06T16:17:28.860Z,9.30
2019-03-06T16:19:59.595Z,8.13
2019-03-06T16:22:29.540Z,6.37
2019-03-06T16:25:00.096Z,4.97
2019-03-06T16:27:30.150Z,11.13
2019-03-06T16:30:00.657Z,5.67
2019-03-06T16:32:30.874Z,5.83
2019-03-06T16:35:00.942Z,3.40
2019-03-06T16:37:31.230Z,8.60
2019-03-06T16:40:01.262Z,5.93
2019-03-06T16:42:31.365Z,7.70
2019-03-06T16:45:01.589Z,7.93
2019-03-06T16:47:31.485Z,6.07
2019-03-06T16:50:01.296Z,7.20
2019-03-06T16:52:31.313Z,6.07
2019-03-06T16:55:01.643Z,7.87
2019-03-06T16:57:31.559Z,6.87
2019-03-06T17:00:01.250Z,11.53
2019-03-06T17:02:31.172Z,8.77
2019-03-06T17:05:01.494Z,9.10
2019-03-06T17:07:31.286Z,4.00
2019-03-06T17:10:01.291Z,5.03
2019-03-06T17:12:32.029Z,7.43
2019-03-06T17:15:02.214Z,7.20
2019-03-06T17:17:32.169Z,7.00
2019-03-06T17:20:02.026Z,10.03
2019-03-06T17:22:32.116Z,7.70
2019-03-06T17:25:02.246Z,10.93
2019-03-06T17:27:32.035Z,15.87
2019-03-06T17:30:01.746Z,8.80
2019-03-06T17:32:31.667Z,12.90
2019-03-06T17:35:01.785Z,22.23
2019-03-06T17:37:31.999Z,9.40
2019-03-06T17:40:02.047Z,9.53
2019-03-06T17:42:32.794Z,7.07
2019-03-06T17:45:02.762Z,7.50
2019-03-06T17:47:32.874Z,15.87
2019-03-06T17:50:02.750Z,8.87
2019-03-06T17:52:32.912Z,8.97
2019-03-06T17:55:02.710Z,8.30
2019-03-06T17:57:33.069Z,14.47
2019-03-06T18:00:04.453Z,8.87
2019-03-06T18:02:34.625Z,7.30
2019-03-06T18:05:05.081Z,13.80
2019-03-06T18:07:34.981Z,14.57
2019-03-06T18:10:05.384Z,5.40
2019-03-06T18:12:35.523Z,8.93
2019-03-06T18:15:06.434Z,7.90
2019-03-06T18:17:36.555Z,11.40
2019-03-06T18:20:07.184Z,10.23
2019-03-06T18:22:37.814Z,5.93
2019-03-06T18:25:10.144Z,9.03
2019-03-06T18:27:41.320Z,12.40
2019-03-06T18:30:13.404Z,11.43
2019-03-06T18:32:43.679Z,7.63
2019-03-06T18:35:14.436Z,7.30
2019-03-06T18:37:44.450Z,7.47
2019-03-06T18:40:16.413Z,7.30
2019-03-06T18:42:46.345Z,11.90
2019-03-06T18:45:17.264Z,8.60
2019-03-06T18:47:47.402Z,7.90
2019-03-06T18:50:18.509Z,6.03
2019-03-06T18:52:48.474Z,8.83
2019-03-06T18:55:19.290Z,6.77
2019-03-06T18:57:49.110Z,8.50
2019-03-06T19:00:20.718Z,13.13
2019-03-06T19:02:50.568Z,5.70
2019-03-06T19:05:20.920Z,13.50
2019-03-06T19:07:51.211Z,8.30
2019-03-06T19:10:21.423Z,11.87
2019-03-06T19:12:51.956Z,7.13
2019-03-06T19:15:22.140Z,8.40
2019-03-06T19:17:52.299Z,10.27
2019-03-06T19:20:22.951Z,5.83
2019-03-06T19:22:53.907Z,8.63
2019-03-06T19:25:23.858Z,5.80
2019-03-06T19:27:54.291Z,4.80
2019-03-06T19:30:25.490Z,6.07
2019-03-06T19:32:55.473Z,6.47
2019-03-06T19:35:26.076Z,6.93
2019-03-06T19:37:56.592Z,6.77
2019-03-06T19:40:26.852Z,5.13
2019-03-06T19:42:56.953Z,6.30
2019-03-06T19:45:27.306Z,6.03
2019-03-06T19:47:57.699Z,5.00
2019-03-06T19:50:27.808Z,7.57
2019-03-06T19:52:59.434Z,5.13
2019-03-06T19:55:29.305Z,8.20
2019-03-06T19:58:01.098Z,5.73
2019-03-06T20:00:32.076Z,8.37
2019-03-06T20:03:02.836Z,8.97
2019-03-06T20:05:36.517Z,8.87
2019-03-06T20:08:09.718Z,4.97
2019-03-06T20:10:40.521Z,9.10
2019-03-06T20:13:10.850Z,6.07
2019-03-06T20:15:41.262Z,6.13
2019-03-06T20:18:12.494Z,7.27
2019-03-06T20:20:43.046Z,9.73
2019-03-06T20:23:12.968Z,6.63
2019-03-06T20:25:43.811Z,8.80
2019-03-06T20:28:14.661Z,8.97
2019-03-06T20:30:44.478Z,8.90
2019-03-06T20:33:14.346Z,9.63
2019-03-06T20:35:44.390Z,12.07
2019-03-06T20:38:14.804Z,8.30
2019-03-06T20:40:45.447Z,5.73
2019-03-06T20:43:15.442Z,9.07
2019-03-06T20:45:46.368Z,8.30
2019-03-06T20:48:16.210Z,7.77
2019-03-06T20:50:46.248Z,7.47
2019-03-06T20:53:16.426Z,8.37
2019-03-06T20:55:46.561Z,7.13
2019-03-06T20:58:16.644Z,10.87
2019-03-06T21:00:46.446Z,10.37
2019-03-06T21:03:16.864Z,6.37
2019-03-06T21:05:47.185Z,11.60
2019-03-06T21:08:17.250Z,6.80
2019-03-06T21:10:47.472Z,9.80
2019-03-06T21:13:17.290Z,9.33
2019-03-06T21:15:47.179Z,10.63
2019-03-06T21:18:17.119Z,8.20
2019-03-06T21:20:47.035Z,10.47
2019-03-06T21:23:16.938Z,12.07
2019-03-06T21:25:47.443Z,10.03
2019-03-06T21:28:17.562Z,7.60
2019-03-06T21:30:47.891Z,7.00
2019-03-06T21:33:17.726Z,8.77
2019-03-06T21:35:47.911Z,11.50
2019-03-06T21:38:18.182Z,6.37
2019-03-06T21:40:47.945Z,8.70
2019-03-06T21:43:17.786Z,5.27
2019-03-06T21:45:47.587Z,11.00
2019-03-06T21:48:17.711Z,11.93
2019-03-06T21:50:47.944Z,8.83
2019-03-06T21:53:18.257Z,12.40
2019-03-06T21:55:48.385Z,9.70
2019-03-06T21:58:18.597Z,12.97
2019-03-06T22:00:48.534Z,8.27
2019-03-06T22:03:18.333Z,6.10
2019-03-06T22:05:48.556Z,10.43
2019-03-06T22:08:18.739Z,9.30
2019-03-06T22:10:48.546Z,12.30
2019-03-06T22:13:18.663Z,11.90
2019-03-06T22:15:49.178Z,12.77
2019-03-06T22:18:19.141Z,12.77
2019-03-06T22:20:49.407Z,11.07
2019-03-06T22:23:19.487Z,9.93
2019-03-06T22:25:49.681Z,10.83
2019-03-06T22:28:19.986Z,8.63
2019-03-06T22:30:49.801Z,7.07
2019-03-06T22:33:20.054Z,8.53
2019-03-06T22:35:50.250Z,13.70
2019-03-06T22:38:20.350Z,14.90
2019-03-06T22:40:51.436Z,13.87
2019-03-06T22:43:21.486Z,12.60
2019-03-06T22:45:51.484Z,9.33
2019-03-06T22:48:21.538Z,7.37
2019-03-06T22:50:51.977Z,9.23
2019-03-06T22:53:22.233Z,12.80
2019-03-06T22:55:52.023Z,10.90
2019-03-06T22:58:22.441Z,13.03
2019-03-06T23:01:02.414Z,9.60
2019-03-06T23:03:32.382Z,6.40
2019-03-06T23:06:02.549Z,10.77
2019-03-06T23:08:32.495Z,8.87
2019-03-06T23:11:02.763Z,5.17
2019-03-06T23:13:32.859Z,10.30
2019-03-06T23:16:02.666Z,10.50
2019-03-06T23:18:32.774Z,7.20
2019-03-06T23:21:03.238Z,6.80
2019-03-06T23:23:33.034Z,8.40
2019-03-06T23:26:02.971Z,7.00
2019-03-06T23:28:32.853Z,4.93
2019-03-06T23:31:03.744Z,10.47
2019-03-06T23:33:33.501Z,9.30
2019-03-06T23:36:03.445Z,12.70
2019-03-06T23:38:34.688Z,9.90
2019-03-06T23:41:04.897Z,8.67
2019-03-06T23:43:35.094Z,8.17
2019-03-06T23:46:05.050Z,7.13
2019-03-06T23:48:35.134Z,11.30
2019-03-06T23:51:10.278Z,8.73
2019-03-06T23:53:59.804Z,5.53
2019-03-06T23:56:29.811Z,10.57
2019-03-06T23:59:00.116Z,8.77
